createdAt,value
2022-12-18T00:01:25.756Z,-4.83
2022-12-18T00:03:52.805Z,-4.81
2022-12-18T00:06:19.670Z,-4.77
2022-12-18T00:08:47.870Z,-4.87
2022-12-18T00:11:18.168Z,-4.85
2022-12-18T00:13:44.955Z,-5.54
2022-12-18T00:16:14.381Z,-5.41
2022-12-18T00:18:41.421Z,-5.08
2022-12-18T00:21:10.392Z,-5.33
2022-12-18T00:23:37.634Z,-4.99
2022-12-18T00:26:06.191Z,-4.97
2022-12-18T00:28:32.883Z,-5.23
2022-12-18T00:31:02.709Z,-4.95
2022-12-18T00:33:28.910Z,-4.95
2022-12-18T00:35:54.962Z,-5.03
2022-12-18T00:38:20.987Z,-5.03
2022-12-18T00:40:47.010Z,-5.02
2022-12-18T00:43:13.047Z,-5.76
2022-12-18T00:45:39.161Z,-5.56
2022-12-18T00:48:05.338Z,-5.40
2022-12-18T00:50:31.464Z,-5.31
2022-12-18T00:52:57.912Z,-5.21
2022-12-18T00:55:23.951Z,-5.23
2022-12-18T00:57:52.504Z,-5.56
2022-12-18T01:00:18.620Z,-5.26
2022-12-18T01:02:44.824Z,-5.25
2022-12-18T01:05:12.510Z,-5.67
2022-12-18T01:07:38.898Z,-5.75
2022-12-18T01:10:06.031Z,-5.29
2022-12-18T01:12:32.215Z,-5.20
2022-12-18T01:14:58.402Z,-5.28
2022-12-18T01:17:24.461Z,-5.29
2022-12-18T01:19:50.588Z,-5.24
2022-12-18T01:22:17.040Z,-5.31
2022-12-18T01:24:43.056Z,-6.41
2022-12-18T01:27:09.077Z,-6.02
2022-12-18T01:29:35.148Z,-5.29
2022-12-18T01:32:01.241Z,-5.28
2022-12-18T01:34:27.304Z,-6.00
2022-12-18T01:36:53.346Z,-5.91
2022-12-18T01:39:19.526Z,-5.44
2022-12-18T01:42:04.364Z,-5.44
2022-12-18T01:45:01.480Z,-5.26
2022-12-18T01:47:41.661Z,-5.34
2022-12-18T01:50:13.052Z,-5.84
2022-12-18T01:52:41.615Z,-5.62
2022-12-18T01:55:08.756Z,-5.49
2022-12-18T01:57:35.201Z,-5.86
2022-12-18T02:00:08.089Z,-5.71
2022-12-18T02:02:34.289Z,-5.48
2022-12-18T02:05:00.684Z,-6.95
2022-12-18T02:07:59.062Z,-6.36
2022-12-18T02:10:29.699Z,-5.82
2022-12-18T02:13:14.695Z,-5.96
2022-12-18T02:16:07.193Z,-6.33
2022-12-18T02:18:36.597Z,-7.10
2022-12-18T02:21:27.405Z,-5.75
2022-12-18T02:24:10.383Z,-5.66
2022-12-18T02:26:39.450Z,-5.46
2022-12-18T02:29:09.891Z,-5.57
2022-12-18T02:31:40.888Z,-6.04
2022-12-18T02:34:08.242Z,-7.54
2022-12-18T02:36:36.804Z,-5.53
2022-12-18T02:39:03.441Z,-6.08
2022-12-18T02:41:30.285Z,-5.76
2022-12-18T02:44:02.304Z,-5.45
2022-12-18T02:46:40.679Z,-5.53
2022-12-18T02:49:09.399Z,-5.40
2022-12-18T02:51:48.485Z,-5.50
2022-12-18T02:54:36.825Z,-6.48
2022-12-18T02:57:16.941Z,-5.81
2022-12-18T02:59:56.374Z,-5.72
2022-12-18T03:02:51.708Z,-5.65
2022-12-18T03:05:21.956Z,-6.84
2022-12-18T03:07:57.319Z,-5.72
2022-12-18T03:10:29.120Z,-5.65
2022-12-18T03:13:02.917Z,-5.63
2022-12-18T03:15:32.463Z,-5.76
2022-12-18T03:18:05.412Z,-5.64
2022-12-18T03:20:33.148Z,-6.82
2022-12-18T03:23:04.960Z,-6.38
2022-12-18T03:25:31.796Z,-6.91
2022-12-18T03:28:00.705Z,-6.40
2022-12-18T03:30:28.459Z,-6.14
2022-12-18T03:33:02.431Z,-6.44
2022-12-18T03:35:31.878Z,-6.58
2022-12-18T03:37:57.982Z,-6.21
2022-12-18T03:40:29.818Z,-6.17
2022-12-18T03:43:03.350Z,-6.45
2022-12-18T03:45:43.242Z,-6.05
2022-12-18T03:48:42.133Z,-5.98
2022-12-18T03:51:11.893Z,-6.22
2022-12-18T03:53:45.235Z,-6.35
2022-12-18T03:56:12.166Z,-6.80
2022-12-18T03:58:39.167Z,-6.39
2022-12-18T04:01:08.177Z,-6.47
2022-12-18T04:03:36.516Z,-6.58
2022-12-18T04:06:03.082Z,-7.25
2022-12-18T04:08:29.596Z,-6.58
2022-12-18T04:10:55.792Z,-6.45
2022-12-18T04:13:23.524Z,-6.38
2022-12-18T04:15:49.658Z,-6.18
2022-12-18T04:18:15.725Z,-7.27
2022-12-18T04:20:41.830Z,-6.18
2022-12-18T04:23:07.886Z,-6.08
2022-12-18T04:25:34.078Z,-6.25
2022-12-18T04:28:00.127Z,-6.15
2022-12-18T04:30:26.255Z,-6.48
2022-12-18T04:32:52.564Z,-6.21
2022-12-18T04:35:18.626Z,-6.16
2022-12-18T04:37:44.659Z,-6.54
2022-12-18T04:40:11.431Z,-7.43
2022-12-18T04:42:37.496Z,-6.37
2022-12-18T04:45:03.952Z,-6.43
2022-12-18T04:47:30.944Z,-7.74
2022-12-18T04:49:56.964Z,-6.60
2022-12-18T04:52:26.037Z,-6.47
2022-12-18T04:54:52.091Z,-6.66
2022-12-18T04:57:20.995Z,-6.77
2022-12-18T04:59:47.232Z,-6.45
2022-12-18T05:02:13.391Z,-6.39
2022-12-18T05:04:39.564Z,-6.39
2022-12-18T05:07:05.591Z,-6.48
2022-12-18T05:09:31.678Z,-6.44
2022-12-18T05:11:57.715Z,-7.26
2022-12-18T05:14:23.823Z,-6.96
2022-12-18T05:16:50.227Z,-7.04
2022-12-18T05:19:16.437Z,-6.65
2022-12-18T05:21:42.494Z,-6.64
2022-12-18T05:24:08.563Z,-6.53
2022-12-18T05:26:34.580Z,-6.71
2022-12-18T05:29:00.637Z,-7.99
2022-12-18T05:31:26.710Z,-6.68
2022-12-18T05:33:52.767Z,-7.36
2022-12-18T05:36:18.977Z,-6.86
2022-12-18T05:38:45.152Z,-6.66
2022-12-18T05:41:11.219Z,-6.70
2022-12-18T05:43:39.067Z,-7.05
2022-12-18T05:46:07.881Z,-6.68
2022-12-18T05:48:34.181Z,-6.59
2022-12-18T05:51:08.417Z,-6.66
2022-12-18T05:53:35.388Z,-6.74
2022-12-18T05:56:05.991Z,-6.62
2022-12-18T05:58:32.304Z,-6.93
2022-12-18T06:00:58.789Z,-7.30
2022-12-18T06:03:29.282Z,-6.88
2022-12-18T06:05:58.307Z,-7.19
2022-12-18T06:08:24.361Z,-7.32
2022-12-18T06:10:52.945Z,-7.93
2022-12-18T06:13:20.227Z,-8.05
2022-12-18T06:15:46.324Z,-7.37
2022-12-18T06:18:12.388Z,-7.45
2022-12-18T06:20:39.961Z,-7.10
2022-12-18T06:23:06.498Z,-6.94
2022-12-18T06:25:33.357Z,-6.95
2022-12-18T06:27:59.524Z,-6.86
2022-12-18T06:30:25.572Z,-7.28
2022-12-18T06:32:56.321Z,-7.16
2022-12-18T06:35:23.349Z,-7.06
2022-12-18T06:37:49.432Z,-7.05
2022-12-18T06:40:15.504Z,-7.69
2022-12-18T06:42:41.532Z,-7.32
2022-12-18T06:45:08.225Z,-7.51
2022-12-18T06:47:34.374Z,-7.72
2022-12-18T06:50:00.647Z,-7.96
2022-12-18T06:52:26.692Z,-7.37
2022-12-18T06:54:52.708Z,-7.45
2022-12-18T06:57:18.752Z,-7.26
2022-12-18T06:59:44.944Z,-7.41
2022-12-18T07:02:12.995Z,-7.96
2022-12-18T07:04:39.129Z,-7.54
2022-12-18T07:07:05.179Z,-7.32
2022-12-18T07:09:31.239Z,-7.23
2022-12-18T07:11:57.269Z,-7.09
2022-12-18T07:14:24.016Z,-7.06
2022-12-18T07:16:50.102Z,-7.12
2022-12-18T07:19:16.208Z,-7.70
2022-12-18T07:21:42.267Z,-7.28
2022-12-18T07:24:08.310Z,-7.08
2022-12-18T07:26:34.335Z,-7.38
2022-12-18T07:29:00.372Z,-7.17
2022-12-18T07:31:27.394Z,-7.18
2022-12-18T07:33:53.868Z,-7.06
2022-12-18T07:36:20.317Z,-7.43
2022-12-18T07:38:50.146Z,-11.91
2022-12-18T07:41:16.741Z,-7.11
2022-12-18T07:43:43.225Z,-7.17
2022-12-18T07:46:10.521Z,-7.38
2022-12-18T07:48:38.409Z,-7.05
2022-12-18T07:51:06.005Z,-7.06
2022-12-18T07:53:33.402Z,-7.02
2022-12-18T07:56:26.659Z,-7.04
2022-12-18T07:58:51.630Z,-7.05
2022-12-18T08:01:17.753Z,-6.98
2022-12-18T08:03:44.630Z,-6.96
2022-12-18T08:06:10.831Z,-7.18
2022-12-18T08:08:37.487Z,-6.83
2022-12-18T08:11:03.620Z,-8.21
2022-12-18T08:13:29.729Z,-9.51
2022-12-18T08:16:01.053Z,-6.61
2022-12-18T08:18:27.382Z,-6.45
2022-12-18T08:20:53.463Z,-6.15
2022-12-18T08:23:19.816Z,-6.34
2022-12-18T08:25:45.970Z,-6.55
2022-12-18T08:28:12.359Z,-7.73
2022-12-18T08:30:38.494Z,-6.64
2022-12-18T08:33:05.447Z,-7.58
2022-12-18T08:35:38.807Z,-5.86
2022-12-18T08:38:07.196Z,-6.18
2022-12-18T08:40:33.453Z,-5.79
2022-12-18T08:43:17.774Z,-5.84
2022-12-18T08:45:43.984Z,-6.10
2022-12-18T08:48:10.074Z,-5.82
2022-12-18T08:50:36.171Z,-5.83
2022-12-18T08:53:02.582Z,-7.82
2022-12-18T08:55:28.732Z,-5.98
2022-12-18T08:57:54.874Z,-6.13
2022-12-18T09:00:20.986Z,-6.33
2022-12-18T09:02:47.400Z,-6.11
2022-12-18T09:05:13.681Z,-8.03
2022-12-18T09:07:39.935Z,-5.82
2022-12-18T09:10:06.400Z,-5.86
2022-12-18T09:12:32.536Z,-5.77
2022-12-18T09:14:58.601Z,-6.48
2022-12-18T09:17:24.722Z,-6.26
2022-12-18T09:19:51.271Z,-6.52
2022-12-18T09:22:17.328Z,-5.79
2022-12-18T09:24:43.355Z,-5.56
2022-12-18T09:27:09.378Z,-5.77
2022-12-18T09:29:35.406Z,-5.55
2022-12-18T09:32:01.464Z,-5.28
2022-12-18T09:34:27.510Z,-5.23
2022-12-18T09:36:53.553Z,-5.06
2022-12-18T09:39:22.217Z,-5.11
2022-12-18T09:41:58.166Z,-5.97
2022-12-18T09:44:34.311Z,-4.52
2022-12-18T09:47:14.846Z,-4.29
2022-12-18T09:49:49.689Z,-4.32
2022-12-18T09:52:30.117Z,-4.22
2022-12-18T09:55:24.663Z,-4.93
2022-12-18T09:57:57.601Z,-4.80
2022-12-18T10:00:25.369Z,-4.09
2022-12-18T10:02:54.105Z,-3.94
2022-12-18T10:05:45.275Z,-3.87
2022-12-18T10:08:48.562Z,-2.70
2022-12-18T10:11:35.400Z,-2.14
2022-12-18T10:14:04.956Z,-1.61
2022-12-18T10:16:33.710Z,-1.28
2022-12-18T10:19:37.569Z,-2.36
2022-12-18T10:22:13.593Z,-1.47
2022-12-18T10:24:45.411Z,-1.41
2022-12-18T10:27:15.764Z,-1.63
2022-12-18T10:29:43.610Z,-1.77
2022-12-18T10:32:15.217Z,-1.81
2022-12-18T10:34:41.248Z,-1.34
2022-12-18T10:37:15.148Z,-2.72
2022-12-18T10:39:41.187Z,-1.67
2022-12-18T10:42:18.966Z,-1.01
2022-12-18T10:44:45.611Z,-0.87
2022-12-18T10:47:15.345Z,-0.99
2022-12-18T10:49:52.469Z,-0.86
2022-12-18T10:52:23.333Z,-1.02
2022-12-18T10:54:52.508Z,-2.16
2022-12-18T10:57:34.814Z,-0.72
2022-12-18T11:00:21.160Z,-0.57
2022-12-18T11:02:47.346Z,-0.48
2022-12-18T11:05:24.171Z,-0.54
2022-12-18T11:07:51.047Z,-1.44
2022-12-18T11:10:19.050Z,-1.51
2022-12-18T11:12:45.209Z,-4.01
2022-12-18T11:15:20.836Z,-1.55
2022-12-18T11:17:49.234Z,-1.55
2022-12-18T11:20:36.744Z,-1.78
2022-12-18T11:23:05.858Z,-7.47
2022-12-18T11:25:34.659Z,-1.92
2022-12-18T11:28:02.660Z,-1.93
2022-12-18T11:30:36.732Z,-1.96
2022-12-18T11:33:10.220Z,-2.68
2022-12-18T11:35:55.837Z,-2.16
2022-12-18T11:38:27.424Z,-2.26
2022-12-18T11:41:00.742Z,-2.26
2022-12-18T11:43:32.054Z,-2.63
2022-12-18T11:46:06.080Z,-2.29
2022-12-18T11:48:45.057Z,-2.17
2022-12-18T11:51:23.774Z,-2.15
2022-12-18T11:53:52.368Z,-3.08
2022-12-18T11:56:34.023Z,-3.25
2022-12-18T11:59:12.145Z,-2.03
2022-12-18T12:02:00.994Z,-2.40
2022-12-18T12:04:48.322Z,-2.15
2022-12-18T12:07:22.729Z,-2.11
2022-12-18T12:10:15.254Z,-2.25
2022-12-18T12:13:06.850Z,-1.97
2022-12-18T12:15:54.297Z,-2.27
2022-12-18T12:18:37.232Z,-2.04
2022-12-18T12:21:18.444Z,-2.42
2022-12-18T12:24:11.724Z,-2.36
2022-12-18T12:26:48.613Z,-2.36
2022-12-18T12:29:31.088Z,-2.23
2022-12-18T12:32:06.197Z,-2.27
2022-12-18T12:35:09.434Z,-2.45
2022-12-18T12:38:16.866Z,-2.07
2022-12-18T12:40:56.625Z,-2.14
2022-12-18T12:43:48.020Z,-2.31
2022-12-18T12:46:18.513Z,-1.96
2022-12-18T12:48:57.410Z,-2.09
2022-12-18T12:51:34.372Z,-1.86
2022-12-18T12:54:02.549Z,-2.45
2022-12-18T12:56:52.937Z,-1.88
2022-12-18T12:59:40.315Z,-1.92
2022-12-18T13:02:12.404Z,-2.02
2022-12-18T13:04:47.732Z,-2.05
2022-12-18T13:07:20.025Z,-1.89
2022-12-18T13:10:12.276Z,-1.85
2022-12-18T13:13:07.322Z,-2.33
2022-12-18T13:15:44.115Z,-1.96
2022-12-18T13:18:10.234Z,-1.94
2022-12-18T13:20:38.819Z,-2.49
2022-12-18T13:23:20.252Z,-1.67
2022-12-18T13:25:47.929Z,-1.89
2022-12-18T13:28:15.342Z,-1.91
2022-12-18T13:30:55.063Z,-1.78
2022-12-18T13:34:01.971Z,-1.75
2022-12-18T13:36:30.613Z,-1.97
2022-12-18T13:42:08.753Z,-1.93
2022-12-18T13:44:41.452Z,-1.87
2022-12-18T13:47:34.670Z,-1.76
2022-12-18T13:50:10.157Z,-1.91
2022-12-18T13:52:38.414Z,-1.79
2022-12-18T13:55:07.882Z,-2.29
2022-12-18T13:57:38.601Z,-1.86
2022-12-18T14:00:23.214Z,-1.71
2022-12-18T14:02:50.648Z,-1.73
2022-12-18T14:05:22.960Z,-1.74
2022-12-18T14:07:51.666Z,-1.86
2022-12-18T14:10:47.668Z,-2.32
2022-12-18T14:13:07.560Z,-2.43
2022-12-18T14:15:40.091Z,-1.90
2022-12-18T14:18:21.085Z,-1.84
2022-12-18T14:20:52.678Z,-1.81
2022-12-18T14:23:31.559Z,-1.85
2022-12-18T14:26:03.632Z,-1.86
2022-12-18T14:28:31.759Z,-1.88
2022-12-18T14:30:58.638Z,-2.15
2022-12-18T14:33:26.693Z,-2.03
2022-12-18T14:36:04.302Z,-1.89
2022-12-18T14:38:38.410Z,-2.12
2022-12-18T14:41:18.286Z,-2.14
2022-12-18T14:43:48.271Z,-3.11
2022-12-18T14:46:28.592Z,-1.93
2022-12-18T14:48:55.926Z,-2.05
2022-12-18T14:51:24.095Z,-1.95
2022-12-18T14:53:59.050Z,-1.95
2022-12-18T14:56:27.826Z,-2.00
2022-12-18T14:58:56.525Z,-2.00
2022-12-18T15:01:26.134Z,-1.89
2022-12-18T15:03:53.733Z,-2.11
2022-12-18T15:06:27.406Z,-1.97
2022-12-18T15:08:53.896Z,-2.11
2022-12-18T15:11:50.673Z,-2.04
2022-12-18T15:14:41.942Z,-2.14
2022-12-18T15:17:22.636Z,-2.13
2022-12-18T15:19:52.279Z,-3.15
2022-12-18T15:22:26.443Z,-2.51
2022-12-18T15:24:53.108Z,-2.14
2022-12-18T15:27:31.383Z,-1.97
2022-12-18T15:30:09.339Z,-2.10
2022-12-18T15:32:42.728Z,-1.96
2022-12-18T15:35:08.834Z,-2.01
2022-12-18T15:37:34.892Z,-2.14
2022-12-18T15:40:02.536Z,-2.04
2022-12-18T15:42:48.137Z,-2.06
2022-12-18T15:45:15.145Z,-2.35
2022-12-18T15:47:44.269Z,-2.15
2022-12-18T15:50:10.647Z,-3.68
2022-12-18T15:52:42.274Z,-2.68
2022-12-18T15:55:37.121Z,-2.41
2022-12-18T15:58:05.421Z,-2.39
2022-12-18T16:00:33.429Z,-2.38
2022-12-18T16:02:59.671Z,-2.31
2022-12-18T16:05:26.619Z,-2.15
2022-12-18T16:07:52.681Z,-2.12
2022-12-18T16:10:18.747Z,-3.11
2022-12-18T16:12:44.873Z,-2.63
2022-12-18T16:15:13.799Z,-2.64
2022-12-18T16:17:40.639Z,-2.60
2022-12-18T16:20:13.196Z,-2.35
2022-12-18T16:22:39.989Z,-2.52
2022-12-18T16:25:06.579Z,-2.46
2022-12-18T16:27:32.632Z,-2.62
2022-12-18T16:29:58.683Z,-2.47
2022-12-18T16:32:24.851Z,-2.29
2022-12-18T16:34:51.007Z,-2.36
2022-12-18T16:37:17.334Z,-2.96
2022-12-18T16:39:44.452Z,-2.29
2022-12-18T16:42:16.404Z,-2.16
2022-12-18T16:44:43.378Z,-2.19
2022-12-18T16:47:10.305Z,-2.61
2022-12-18T16:49:39.442Z,-2.27
2022-12-18T16:52:06.303Z,-2.27
2022-12-18T16:54:34.376Z,-2.78
2022-12-18T16:57:00.532Z,-2.22
2022-12-18T16:59:27.041Z,-2.39
2022-12-18T17:01:55.274Z,-2.33
2022-12-18T17:04:21.394Z,-2.33
2022-12-18T17:06:51.117Z,-2.34
2022-12-18T17:09:27.746Z,-2.49
2022-12-18T17:11:53.885Z,-2.30
2022-12-18T17:14:22.365Z,-2.30
2022-12-18T17:16:57.801Z,-2.40
2022-12-18T17:19:34.814Z,-2.43
2022-12-18T17:22:01.039Z,-2.92
2022-12-18T17:24:31.411Z,-2.66
2022-12-18T17:27:00.528Z,-2.64
2022-12-18T17:29:26.622Z,-2.75
2022-12-18T17:31:52.710Z,-2.62
2022-12-18T17:34:21.208Z,-2.67
2022-12-18T17:36:47.291Z,-2.46
2022-12-18T17:39:18.004Z,-3.55
2022-12-18T17:41:44.334Z,-2.70
2022-12-18T17:44:10.584Z,-2.49
2022-12-18T17:46:36.914Z,-2.45
2022-12-18T17:49:03.530Z,-2.52
2022-12-18T17:51:29.941Z,-2.33
2022-12-18T17:53:56.533Z,-2.37
2022-12-18T17:56:23.927Z,-2.52
2022-12-18T17:58:50.307Z,-2.95
2022-12-18T18:01:19.464Z,-2.56
2022-12-18T18:03:47.075Z,-2.63
2022-12-18T18:06:15.530Z,-4.33
2022-12-18T18:08:41.663Z,-2.52
2022-12-18T18:11:32.852Z,-2.95
2022-12-18T18:14:02.003Z,-2.29
2022-12-18T18:16:41.244Z,-2.23
2022-12-18T18:19:10.279Z,-2.45
2022-12-18T18:21:41.323Z,-2.05
2022-12-18T18:24:09.704Z,-2.32
2022-12-18T18:26:36.462Z,-2.26
2022-12-18T18:29:04.822Z,-2.36
2022-12-18T18:31:34.049Z,-2.36
2022-12-18T18:34:07.010Z,-2.58
2022-12-18T18:36:34.218Z,-2.66
2022-12-18T18:39:01.022Z,-2.94
2022-12-18T18:41:28.958Z,-2.52
2022-12-18T18:43:56.203Z,-2.17
2022-12-18T18:46:22.923Z,-2.26
2022-12-18T18:48:49.039Z,-2.06
2022-12-18T18:51:16.537Z,-2.22
2022-12-18T18:53:48.726Z,-2.21
2022-12-18T18:56:45.100Z,-2.37
2022-12-18T18:59:03.121Z,-2.71
2022-12-18T19:01:29.322Z,-2.23
2022-12-18T19:03:55.781Z,-2.34
2022-12-18T19:06:26.960Z,-2.32
2022-12-18T19:08:54.454Z,-2.27
2022-12-18T19:11:47.333Z,-2.19
2022-12-18T19:14:14.604Z,-2.20
2022-12-18T19:16:41.359Z,-2.23
2022-12-18T19:19:07.916Z,-2.84
2022-12-18T19:21:34.742Z,-3.14
2022-12-18T19:24:01.745Z,-1.75
2022-12-18T19:26:28.694Z,-1.09
2022-12-18T19:29:03.672Z,-0.60
2022-12-18T19:31:35.192Z,-2.60
2022-12-18T19:34:06.163Z,-1.34
2022-12-18T19:36:34.207Z,-1.47
2022-12-18T19:39:01.598Z,-1.60
2022-12-18T19:41:30.635Z,-4.08
2022-12-18T19:43:57.768Z,-2.01
2022-12-18T19:46:23.879Z,-2.18
2022-12-18T19:48:50.908Z,-2.34
2022-12-18T19:51:20.315Z,-2.11
2022-12-18T19:53:46.971Z,-3.81
2022-12-18T19:56:15.751Z,-1.94
2022-12-18T19:58:42.549Z,-1.91
2022-12-18T20:01:09.066Z,-1.90
2022-12-18T20:03:36.965Z,-2.13
2022-12-18T20:06:13.844Z,-2.16
2022-12-18T20:08:40.412Z,-2.05
2022-12-18T20:11:06.959Z,-1.94
2022-12-18T20:13:33.491Z,-2.54
2022-12-18T20:15:59.590Z,-3.87
2022-12-18T20:18:26.009Z,-2.78
2022-12-18T20:20:52.555Z,-2.16
2022-12-18T20:23:19.312Z,-2.48
2022-12-18T20:25:45.348Z,-2.11
2022-12-18T20:28:11.684Z,-2.26
2022-12-18T20:30:37.883Z,-2.42
2022-12-18T20:33:04.181Z,-3.31
2022-12-18T20:35:32.457Z,-2.14
2022-12-18T20:37:58.820Z,-3.80
2022-12-18T20:40:26.825Z,-2.43
2022-12-18T20:42:52.844Z,-2.82
2022-12-18T20:45:19.184Z,-2.71
2022-12-18T20:47:45.203Z,-2.18
2022-12-18T20:50:11.432Z,-2.29
2022-12-18T20:52:37.500Z,-2.26
2022-12-18T20:55:06.839Z,-2.35
2022-12-18T20:57:33.143Z,-2.18
2022-12-18T21:00:00.379Z,-2.03
2022-12-18T21:02:26.635Z,-2.10
2022-12-18T21:04:53.506Z,-2.01
2022-12-18T21:07:19.573Z,-2.17
2022-12-18T21:09:45.620Z,-2.06
2022-12-18T21:12:34.059Z,-2.23
2022-12-18T21:15:09.020Z,-1.95
2022-12-18T21:17:44.252Z,-2.27
2022-12-18T21:20:11.896Z,-2.63
2022-12-18T21:22:43.722Z,-2.12
2022-12-18T21:25:09.785Z,-2.14
2022-12-18T21:27:35.833Z,-2.07
2022-12-18T21:30:02.162Z,-2.05
2022-12-18T21:32:29.875Z,-2.14
2022-12-18T21:34:59.665Z,-2.25
2022-12-18T21:37:25.978Z,-2.06
2022-12-18T21:39:52.144Z,-2.15
2022-12-18T21:42:37.010Z,-1.92
2022-12-18T21:45:03.362Z,-2.52
2022-12-18T21:47:29.462Z,-2.10
2022-12-18T21:49:55.546Z,-2.03
2022-12-18T21:52:28.627Z,-2.13
2022-12-18T21:55:06.196Z,-2.08
2022-12-18T21:57:35.275Z,-2.15
2022-12-18T22:00:02.238Z,-2.61
2022-12-18T22:02:28.517Z,-2.87
2022-12-18T22:04:54.688Z,-1.93
2022-12-18T22:07:21.292Z,-2.02
2022-12-18T22:09:49.132Z,-7.49
2022-12-18T22:12:34.330Z,-6.48
2022-12-18T22:15:01.033Z,-2.03
2022-12-18T22:17:27.130Z,-1.92
2022-12-18T22:19:54.212Z,-1.88
2022-12-18T22:22:23.585Z,-1.88
2022-12-18T22:24:49.672Z,-1.90
2022-12-18T22:27:15.703Z,-2.05
2022-12-18T22:30:00.156Z,-2.12
2022-12-18T22:32:30.635Z,-1.97
2022-12-18T22:35:04.561Z,-1.71
2022-12-18T22:37:33.227Z,-2.22
2022-12-18T22:39:59.264Z,-1.76
2022-12-18T22:42:30.153Z,-2.04
2022-12-18T22:44:56.253Z,-1.75
2022-12-18T22:47:26.507Z,-2.00
2022-12-18T22:49:55.335Z,-1.83
2022-12-18T22:52:21.357Z,-1.88
2022-12-18T22:54:49.864Z,-1.63
2022-12-18T22:57:15.956Z,-1.81
2022-12-18T22:59:42.074Z,-1.72
2022-12-18T23:02:08.212Z,-1.79
2022-12-18T23:04:36.499Z,-2.14
2022-12-18T23:07:04.424Z,-1.78
2022-12-18T23:09:30.664Z,-1.86
2022-12-18T23:11:56.720Z,-1.60
2022-12-18T23:14:22.768Z,-1.69
2022-12-18T23:16:48.801Z,-1.64
2022-12-18T23:19:16.821Z,-1.73
2022-12-18T23:21:42.886Z,-1.57
2022-12-18T23:24:08.934Z,-1.40
2022-12-18T23:26:35.277Z,-1.51
2022-12-18T23:29:01.526Z,-1.61
2022-12-18T23:31:32.375Z,-1.63
2022-12-18T23:34:00.069Z,-1.73
2022-12-18T23:36:26.633Z,-1.72
2022-12-18T23:38:54.675Z,-2.05
2022-12-18T23:41:22.764Z,-1.56
2022-12-18T23:43:49.084Z,-1.95
2022-12-18T23:46:21.456Z,-1.69
2022-12-18T23:48:47.824Z,-2.93
2022-12-18T23:51:15.255Z,-2.98
2022-12-18T23:53:42.096Z,-1.66
2022-12-18T23:56:09.453Z,-1.76
2022-12-18T23:58:37.085Z,-1.72
